sensor_id;sensor_type;location;lat;lon;timestamp;temperature;humidity
8988;DHT22;4529;51.360;12.474;2023-02-23T00:01:36;8.50;99.90
8988;DHT22;4529;51.360;12.474;2023-02-23T00:06:40;8.60;99.90
8988;DHT22;4529;51.360;12.474;2023-02-23T00:11:44;8.70;99.90
8988;DHT22;4529;51.360;12.474;2023-02-23T00:16:49;8.70;99.90
8988;DHT22;4529;51.360;12.474;2023-02-23T00:21:53;8.70;99.90
8988;DHT22;4529;51.360;12.474;2023-02-23T00:26:57;8.80;99.90
8988;DHT22;4529;51.360;12.474;2023-02-23T00:32:01;8.80;99.90
8988;DHT22;4529;51.360;12.474;2023-02-23T00:37:05;8.80;99.90
8988;DHT22;4529;51.360;12.474;2023-02-23T00:42:09;8.80;99.90
8988;DHT22;4529;51.360;12.474;2023-02-23T00:47:12;8.80;99.90
8988;DHT22;4529;51.360;12.474;2023-02-23T00:52:16;8.80;99.90
8988;DHT22;4529;51.360;12.474;2023-02-23T00:57:19;8.80;99.90
8988;DHT22;4529;51.360;12.474;2023-02-23T01:02:23;8.80;99.90
8988;DHT22;4529;51.360;12.474;2023-02-23T01:07:26;8.80;99.90
8988;DHT22;4529;51.360;12.474;2023-02-23T01:12:29;8.80;99.90
8988;DHT22;4529;51.360;12.474;2023-02-23T01:17:34;8.80;99.90
8988;DHT22;4529;51.360;12.474;2023-02-23T01:22:38;8.70;99.90
8988;DHT22;4529;51.360;12.474;2023-02-23T01:27:41;8.70;99.90
8988;DHT22;4529;51.360;12.474;2023-02-23T01:32:45;8.70;99.90
8988;DHT22;4529;51.360;12.474;2023-02-23T01:37:49;8.60;99.90
8988;DHT22;4529;51.360;12.474;2023-02-23T01:42:53;8.50;99.90
8988;DHT22;4529;51.360;12.474;2023-02-23T01:47:57;8.50;99.90
8988;DHT22;4529;51.360;12.474;2023-02-23T01:52:59;8.40;99.90
8988;DHT22;4529;51.360;12.474;2023-02-23T01:58:13;8.40;99.90
8988;DHT22;4529;51.360;12.474;2023-02-23T02:03:30;8.40;99.90
8988;DHT22;4529;51.360;12.474;2023-02-23T02:08:32;8.30;99.90
8988;DHT22;4529;51.360;12.474;2023-02-23T02:13:36;8.30;99.90
8988;DHT22;4529;51.360;12.474;2023-02-23T02:19:24;8.20;99.90
8988;DHT22;4529;51.360;12.474;2023-02-23T02:24:34;8.20;99.90
8988;DHT22;4529;51.360;12.474;2023-02-23T02:29:55;8.10;99.90
8988;DHT22;4529;51.360;12.474;2023-02-23T02:35:20;8.10;99.90
8988;DHT22;4529;51.360;12.474;2023-02-23T02:40:30;8.10;99.90
8988;DHT22;4529;51.360;12.474;2023-02-23T02:45:37;8.00;99.90
8988;DHT22;4529;51.360;12.474;2023-02-23T02:50:45;7.90;99.90
8988;DHT22;4529;51.360;12.474;2023-02-23T02:55:47;7.90;99.90
8988;DHT22;4529;51.360;12.474;2023-02-23T03:00:51;8.00;99.90
8988;DHT22;4529;51.360;12.474;2023-02-23T03:05:55;8.00;99.90
8988;DHT22;4529;51.360;12.474;2023-02-23T03:11:06;8.10;99.90
8988;DHT22;4529;51.360;12.474;2023-02-23T03:16:38;8.10;99.90
8988;DHT22;4529;51.360;12.474;2023-02-23T03:21:57;8.10;99.90
8988;DHT22;4529;51.360;12.474;2023-02-23T03:27:00;8.20;99.90
8988;DHT22;4529;51.360;12.474;2023-02-23T03:32:17;8.20;99.90
8988;DHT22;4529;51.360;12.474;2023-02-23T03:37:30;8.20;99.90
8988;DHT22;4529;51.360;12.474;2023-02-23T03:42:31;8.20;99.90
8988;DHT22;4529;51.360;12.474;2023-02-23T03:47:36;8.30;99.90
8988;DHT22;4529;51.360;12.474;2023-02-23T03:52:50;8.30;99.90
8988;DHT22;4529;51.360;12.474;2023-02-23T03:57:51;8.30;99.90
8988;DHT22;4529;51.360;12.474;2023-02-23T04:02:54;8.30;99.90
8988;DHT22;4529;51.360;12.474;2023-02-23T04:07:57;8.30;99.90
8988;DHT22;4529;51.360;12.474;2023-02-23T04:13:08;8.30;99.90
8988;DHT22;4529;51.360;12.474;2023-02-23T04:18:14;8.40;99.90
8988;DHT22;4529;51.360;12.474;2023-02-23T04:23:17;8.40;99.90
8988;DHT22;4529;51.360;12.474;2023-02-23T04:28:21;8.50;99.90
8988;DHT22;4529;51.360;12.474;2023-02-23T04:33:25;8.50;99.90
8988;DHT22;4529;51.360;12.474;2023-02-23T04:38:29;8.50;99.90
8988;DHT22;4529;51.360;12.474;2023-02-23T04:43:33;8.60;99.90
8988;DHT22;4529;51.360;12.474;2023-02-23T04:48:37;8.50;99.90
8988;DHT22;4529;51.360;12.474;2023-02-23T04:53:41;8.50;99.90
8988;DHT22;4529;51.360;12.474;2023-02-23T04:58:44;8.60;99.90
8988;DHT22;4529;51.360;12.474;2023-02-23T05:03:48;8.60;99.90
8988;DHT22;4529;51.360;12.474;2023-02-23T05:08:51;8.70;99.90
8988;DHT22;4529;51.360;12.474;2023-02-23T05:13:54;8.70;99.90
8988;DHT22;4529;51.360;12.474;2023-02-23T05:18:58;8.70;99.90
8988;DHT22;4529;51.360;12.474;2023-02-23T05:24:01;8.70;99.90
8988;DHT22;4529;51.360;12.474;2023-02-23T05:29:05;8.80;99.90
8988;DHT22;4529;51.360;12.474;2023-02-23T05:34:08;8.70;99.90
8988;DHT22;4529;51.360;12.474;2023-02-23T05:39:12;8.70;99.90
8988;DHT22;4529;51.360;12.474;2023-02-23T05:44:17;8.70;99.90
8988;DHT22;4529;51.360;12.474;2023-02-23T05:49:21;8.70;99.90
8988;DHT22;4529;51.360;12.474;2023-02-23T05:54:25;8.70;99.90
8988;DHT22;4529;51.360;12.474;2023-02-23T05:59:29;8.70;99.90
8988;DHT22;4529;51.360;12.474;2023-02-23T06:04:33;8.60;99.90
8988;DHT22;4529;51.360;12.474;2023-02-23T06:09:36;8.60;99.90
8988;DHT22;4529;51.360;12.474;2023-02-23T06:14:40;8.60;99.90
8988;DHT22;4529;51.360;12.474;2023-02-23T06:19:43;8.60;99.90
8988;DHT22;4529;51.360;12.474;2023-02-23T06:24:47;8.80;99.90
8988;DHT22;4529;51.360;12.474;2023-02-23T06:29:50;9.00;99.90
8988;DHT22;4529;51.360;12.474;2023-02-23T06:34:54;9.10;99.90
8988;DHT22;4529;51.360;12.474;2023-02-23T06:39:59;9.20;99.90
8988;DHT22;4529;51.360;12.474;2023-02-23T06:45:03;9.30;99.90
8988;DHT22;4529;51.360;12.474;2023-02-23T06:50:07;9.50;99.90
8988;DHT22;4529;51.360;12.474;2023-02-23T06:55:11;9.50;99.90
8988;DHT22;4529;51.360;12.474;2023-02-23T07:00:16;9.60;99.90
8988;DHT22;4529;51.360;12.474;2023-02-23T07:05:20;9.80;99.90
8988;DHT22;4529;51.360;12.474;2023-02-23T07:10:24;9.90;99.90
8988;DHT22;4529;51.360;12.474;2023-02-23T07:15:28;9.90;99.90
8988;DHT22;4529;51.360;12.474;2023-02-23T07:20:31;9.90;99.90
8988;DHT22;4529;51.360;12.474;2023-02-23T07:25:35;10.00;99.90
8988;DHT22;4529;51.360;12.474;2023-02-23T07:30:39;10.00;99.90
8988;DHT22;4529;51.360;12.474;2023-02-23T07:35:42;10.10;99.90
8988;DHT22;4529;51.360;12.474;2023-02-23T07:40:47;10.20;99.90
8988;DHT22;4529;51.360;12.474;2023-02-23T07:45:49;10.30;99.90
8988;DHT22;4529;51.360;12.474;2023-02-23T07:50:52;10.10;99.90
8988;DHT22;4529;51.360;12.474;2023-02-23T07:55:59;9.80;99.90
8988;DHT22;4529;51.360;12.474;2023-02-23T08:01:02;9.70;99.90
8988;DHT22;4529;51.360;12.474;2023-02-23T08:06:06;9.70;99.90
8988;DHT22;4529;51.360;12.474;2023-02-23T08:11:09;9.70;99.90
8988;DHT22;4529;51.360;12.474;2023-02-23T08:16:13;9.70;99.90
8988;DHT22;4529;51.360;12.474;2023-02-23T08:21:17;10.10;99.90
8988;DHT22;4529;51.360;12.474;2023-02-23T08:26:21;10.30;99.90
8988;DHT22;4529;51.360;12.474;2023-02-23T08:31:24;10.30;99.90
8988;DHT22;4529;51.360;12.474;2023-02-23T08:36:28;10.50;99.90
8988;DHT22;4529;51.360;12.474;2023-02-23T08:41:32;10.60;99.90
8988;DHT22;4529;51.360;12.474;2023-02-23T08:46:35;10.70;99.90
8988;DHT22;4529;51.360;12.474;2023-02-23T08:51:39;10.80;99.90
8988;DHT22;4529;51.360;12.474;2023-02-23T08:56:42;10.90;99.90
8988;DHT22;4529;51.360;12.474;2023-02-23T09:01:45;11.00;99.90
8988;DHT22;4529;51.360;12.474;2023-02-23T09:06:49;11.10;99.90
8988;DHT22;4529;51.360;12.474;2023-02-23T09:11:52;11.30;99.90
8988;DHT22;4529;51.360;12.474;2023-02-23T09:16:57;11.50;99.90
8988;DHT22;4529;51.360;12.474;2023-02-23T09:22:00;11.50;99.90
8988;DHT22;4529;51.360;12.474;2023-02-23T09:27:04;11.50;99.90
8988;DHT22;4529;51.360;12.474;2023-02-23T09:32:08;11.60;99.90
8988;DHT22;4529;51.360;12.474;2023-02-23T09:37:11;11.70;99.90
8988;DHT22;4529;51.360;12.474;2023-02-23T09:47:49;11.90;99.90
8988;DHT22;4529;51.360;12.474;2023-02-23T09:52:49;11.90;99.90
8988;DHT22;4529;51.360;12.474;2023-02-23T09:57:52;12.00;99.90
8988;DHT22;4529;51.360;12.474;2023-02-23T10:03:22;12.00;99.90
8988;DHT22;4529;51.360;12.474;2023-02-23T10:08:49;12.10;99.90
8988;DHT22;4529;51.360;12.474;2023-02-23T10:14:06;12.20;99.90
8988;DHT22;4529;51.360;12.474;2023-02-23T10:19:43;12.20;99.90
8988;DHT22;4529;51.360;12.474;2023-02-23T10:25:18;12.30;99.90
8988;DHT22;4529;51.360;12.474;2023-02-23T10:29:54;12.40;99.90
8988;DHT22;4529;51.360;12.474;2023-02-23T10:34:58;12.40;99.90
8988;DHT22;4529;51.360;12.474;2023-02-23T10:40:01;12.60;99.90
8988;DHT22;4529;51.360;12.474;2023-02-23T10:45:11;12.70;99.90
8988;DHT22;4529;51.360;12.474;2023-02-23T10:50:10;12.80;99.90
8988;DHT22;4529;51.360;12.474;2023-02-23T10:55:26;12.80;99.90
8988;DHT22;4529;51.360;12.474;2023-02-23T11:00:29;12.80;99.90
8988;DHT22;4529;51.360;12.474;2023-02-23T11:05:44;12.90;99.90
8988;DHT22;4529;51.360;12.474;2023-02-23T11:11:00;13.00;99.90
8988;DHT22;4529;51.360;12.474;2023-02-23T11:21:12;13.10;99.90
8988;DHT22;4529;51.360;12.474;2023-02-23T11:26:20;13.20;99.90
8988;DHT22;4529;51.360;12.474;2023-02-23T11:31:26;13.30;99.90
8988;DHT22;4529;51.360;12.474;2023-02-23T11:36:29;13.40;99.90
8988;DHT22;4529;51.360;12.474;2023-02-23T11:41:32;13.50;99.90
8988;DHT22;4529;51.360;12.474;2023-02-23T11:46:35;13.60;99.90
8988;DHT22;4529;51.360;12.474;2023-02-23T11:51:39;13.60;99.90
8988;DHT22;4529;51.360;12.474;2023-02-23T11:56:42;13.60;99.90
8988;DHT22;4529;51.360;12.474;2023-02-23T12:01:52;13.60;99.90
8988;DHT22;4529;51.360;12.474;2023-02-23T12:12:17;13.70;99.90
8988;DHT22;4529;51.360;12.474;2023-02-23T12:17:26;13.70;99.90
8988;DHT22;4529;51.360;12.474;2023-02-23T12:22:28;13.80;99.90
8988;DHT22;4529;51.360;12.474;2023-02-23T12:27:43;13.80;99.90
8988;DHT22;4529;51.360;12.474;2023-02-23T12:38:04;13.70;99.90
8988;DHT22;4529;51.360;12.474;2023-02-23T12:43:20;13.70;99.90
8988;DHT22;4529;51.360;12.474;2023-02-23T12:48:29;13.70;99.90
8988;DHT22;4529;51.360;12.474;2023-02-23T12:53:37;13.80;99.90
8988;DHT22;4529;51.360;12.474;2023-02-23T12:58:49;13.80;99.90
8988;DHT22;4529;51.360;12.474;2023-02-23T13:04:17;13.80;99.90
8988;DHT22;4529;51.360;12.474;2023-02-23T13:15:00;13.80;99.90
8988;DHT22;4529;51.360;12.474;2023-02-23T13:20:02;13.70;99.90
8988;DHT22;4529;51.360;12.474;2023-02-23T13:25:09;13.70;99.90
8988;DHT22;4529;51.360;12.474;2023-02-23T13:30:09;13.70;99.90
8988;DHT22;4529;51.360;12.474;2023-02-23T13:35:16;13.60;99.90
8988;DHT22;4529;51.360;12.474;2023-02-23T13:40:40;13.70;99.90
8988;DHT22;4529;51.360;12.474;2023-02-23T13:46:13;13.60;99.90
8988;DHT22;4529;51.360;12.474;2023-02-23T13:51:37;13.60;99.90
8988;DHT22;4529;51.360;12.474;2023-02-23T13:56:44;13.60;99.90
8988;DHT22;4529;51.360;12.474;2023-02-23T14:01:47;13.60;99.90
8988;DHT22;4529;51.360;12.474;2023-02-23T14:06:53;13.60;99.90
8988;DHT22;4529;51.360;12.474;2023-02-23T14:17:40;13.50;99.90
8988;DHT22;4529;51.360;12.474;2023-02-23T14:23:26;13.50;99.90
8988;DHT22;4529;51.360;12.474;2023-02-23T14:33:48;13.50;99.90
8988;DHT22;4529;51.360;12.474;2023-02-23T14:38:40;13.50;99.90
8988;DHT22;4529;51.360;12.474;2023-02-23T14:43:53;13.40;99.90
8988;DHT22;4529;51.360;12.474;2023-02-23T14:49:05;13.50;99.90
8988;DHT22;4529;51.360;12.474;2023-02-23T14:54:09;13.40;99.90
8988;DHT22;4529;51.360;12.474;2023-02-23T14:59:07;13.40;99.90
8988;DHT22;4529;51.360;12.474;2023-02-23T15:04:12;13.40;99.90
8988;DHT22;4529;51.360;12.474;2023-02-23T15:09:18;13.40;99.90
8988;DHT22;4529;51.360;12.474;2023-02-23T15:14:20;13.40;99.90
8988;DHT22;4529;51.360;12.474;2023-02-23T15:19:34;13.40;99.90
8988;DHT22;4529;51.360;12.474;2023-02-23T15:24:41;13.40;99.90
8988;DHT22;4529;51.360;12.474;2023-02-23T15:29:43;13.30;99.90
8988;DHT22;4529;51.360;12.474;2023-02-23T15:34:46;13.30;99.90
8988;DHT22;4529;51.360;12.474;2023-02-23T15:39:56;13.30;99.90
8988;DHT22;4529;51.360;12.474;2023-02-23T15:44:57;13.20;99.90
8988;DHT22;4529;51.360;12.474;2023-02-23T15:50:04;13.20;99.90
8988;DHT22;4529;51.360;12.474;2023-02-23T15:55:07;13.20;99.90
8988;DHT22;4529;51.360;12.474;2023-02-23T16:00:20;13.10;99.90
8988;DHT22;4529;51.360;12.474;2023-02-23T16:05:23;13.00;99.90
8988;DHT22;4529;51.360;12.474;2023-02-23T16:10:27;12.80;99.90
8988;DHT22;4529;51.360;12.474;2023-02-23T16:15:34;12.80;99.90
8988;DHT22;4529;51.360;12.474;2023-02-23T16:20:40;12.70;99.90
8988;DHT22;4529;51.360;12.474;2023-02-23T16:25:42;12.60;99.90
8988;DHT22;4529;51.360;12.474;2023-02-23T16:30:52;12.50;99.90
8988;DHT22;4529;51.360;12.474;2023-02-23T16:41:18;12.30;99.90
8988;DHT22;4529;51.360;12.474;2023-02-23T16:46:21;12.20;99.90
8988;DHT22;4529;51.360;12.474;2023-02-23T16:51:25;12.00;99.90
8988;DHT22;4529;51.360;12.474;2023-02-23T16:56:28;12.00;99.90
8988;DHT22;4529;51.360;12.474;2023-02-23T17:01:32;11.90;99.90
8988;DHT22;4529;51.360;12.474;2023-02-23T17:06:35;11.90;99.90
8988;DHT22;4529;51.360;12.474;2023-02-23T17:11:41;11.90;99.90
8988;DHT22;4529;51.360;12.474;2023-02-23T17:16:44;11.80;99.90
8988;DHT22;4529;51.360;12.474;2023-02-23T17:21:49;11.70;99.90
8988;DHT22;4529;51.360;12.474;2023-02-23T17:26:53;11.70;99.90
8988;DHT22;4529;51.360;12.474;2023-02-23T17:31:57;11.60;99.90
8988;DHT22;4529;51.360;12.474;2023-02-23T17:37:01;11.60;99.90
8988;DHT22;4529;51.360;12.474;2023-02-23T17:42:05;11.60;99.90
8988;DHT22;4529;51.360;12.474;2023-02-23T17:47:09;11.60;99.90
8988;DHT22;4529;51.360;12.474;2023-02-23T17:52:16;11.50;99.90
8988;DHT22;4529;51.360;12.474;2023-02-23T17:57:20;11.50;99.90
8988;DHT22;4529;51.360;12.474;2023-02-23T18:02:23;11.50;99.90
8988;DHT22;4529;51.360;12.474;2023-02-23T18:07:28;11.40;99.90
8988;DHT22;4529;51.360;12.474;2023-02-23T18:12:32;11.50;99.90
8988;DHT22;4529;51.360;12.474;2023-02-23T18:17:35;11.40;99.90
8988;DHT22;4529;51.360;12.474;2023-02-23T18:22:43;11.50;99.90
8988;DHT22;4529;51.360;12.474;2023-02-23T18:27:50;11.40;99.90
8988;DHT22;4529;51.360;12.474;2023-02-23T18:32:53;11.40;99.90
8988;DHT22;4529;51.360;12.474;2023-02-23T18:37:54;11.40;99.90
8988;DHT22;4529;51.360;12.474;2023-02-23T18:42:57;11.40;99.90
8988;DHT22;4529;51.360;12.474;2023-02-23T18:48:01;11.40;99.90
8988;DHT22;4529;51.360;12.474;2023-02-23T18:53:04;11.40;99.90
8988;DHT22;4529;51.360;12.474;2023-02-23T18:58:08;11.30;99.90
8988;DHT22;4529;51.360;12.474;2023-02-23T19:03:11;11.10;99.90
8988;DHT22;4529;51.360;12.474;2023-02-23T19:08:15;10.90;99.90
8988;DHT22;4529;51.360;12.474;2023-02-23T19:13:20;10.70;99.90
8988;DHT22;4529;51.360;12.474;2023-02-23T19:18:23;10.70;99.90
8988;DHT22;4529;51.360;12.474;2023-02-23T19:23:27;10.60;99.90
8988;DHT22;4529;51.360;12.474;2023-02-23T19:28:30;10.50;99.90
8988;DHT22;4529;51.360;12.474;2023-02-23T19:33:34;10.40;99.90
8988;DHT22;4529;51.360;12.474;2023-02-23T19:38:37;10.40;99.90
8988;DHT22;4529;51.360;12.474;2023-02-23T19:43:41;10.30;99.90
8988;DHT22;4529;51.360;12.474;2023-02-23T19:48:47;10.20;99.90
8988;DHT22;4529;51.360;12.474;2023-02-23T19:53:48;10.20;99.90
8988;DHT22;4529;51.360;12.474;2023-02-23T20:04:02;10.10;99.90
8988;DHT22;4529;51.360;12.474;2023-02-23T20:09:06;10.00;99.90
8988;DHT22;4529;51.360;12.474;2023-02-23T20:14:09;10.00;99.90
8988;DHT22;4529;51.360;12.474;2023-02-23T20:19:13;10.00;99.90
8988;DHT22;4529;51.360;12.474;2023-02-23T20:24:18;9.90;99.90
8988;DHT22;4529;51.360;12.474;2023-02-23T20:29:21;9.90;99.90
8988;DHT22;4529;51.360;12.474;2023-02-23T20:34:25;9.90;99.90
8988;DHT22;4529;51.360;12.474;2023-02-23T20:39:28;9.90;99.90
8988;DHT22;4529;51.360;12.474;2023-02-23T20:44:33;10.10;99.90
8988;DHT22;4529;51.360;12.474;2023-02-23T20:49:45;10.10;99.90
8988;DHT22;4529;51.360;12.474;2023-02-23T20:54:49;10.20;99.90
8988;DHT22;4529;51.360;12.474;2023-02-23T20:59:52;10.20;99.90
8988;DHT22;4529;51.360;12.474;2023-02-23T21:04:56;10.20;99.90
8988;DHT22;4529;51.360;12.474;2023-02-23T21:09:59;10.30;99.90
8988;DHT22;4529;51.360;12.474;2023-02-23T21:15:03;10.10;99.90
8988;DHT22;4529;51.360;12.474;2023-02-23T21:20:09;10.10;99.90
8988;DHT22;4529;51.360;12.474;2023-02-23T21:25:11;9.80;99.90
8988;DHT22;4529;51.360;12.474;2023-02-23T21:30:17;9.70;99.90
8988;DHT22;4529;51.360;12.474;2023-02-23T21:35:19;9.70;99.90
8988;DHT22;4529;51.360;12.474;2023-02-23T21:40:23;9.60;99.90
8988;DHT22;4529;51.360;12.474;2023-02-23T21:45:28;9.60;99.90
8988;DHT22;4529;51.360;12.474;2023-02-23T21:50:31;9.60;99.90
8988;DHT22;4529;51.360;12.474;2023-02-23T21:55:37;9.60;99.90
8988;DHT22;4529;51.360;12.474;2023-02-23T22:00:41;9.50;99.90
8988;DHT22;4529;51.360;12.474;2023-02-23T22:05:45;9.50;99.90
8988;DHT22;4529;51.360;12.474;2023-02-23T22:10:48;9.50;99.90
8988;DHT22;4529;51.360;12.474;2023-02-23T22:15:56;9.50;99.90
8988;DHT22;4529;51.360;12.474;2023-02-23T22:21:02;9.40;99.90
8988;DHT22;4529;51.360;12.474;2023-02-23T22:26:06;9.50;99.90
8988;DHT22;4529;51.360;12.474;2023-02-23T22:31:10;9.50;99.90
8988;DHT22;4529;51.360;12.474;2023-02-23T22:36:13;9.50;99.90
8988;DHT22;4529;51.360;12.474;2023-02-23T22:41:17;9.40;99.90
8988;DHT22;4529;51.360;12.474;2023-02-23T22:46:21;9.40;99.90
8988;DHT22;4529;51.360;12.474;2023-02-23T22:51:37;9.30;99.90
8988;DHT22;4529;51.360;12.474;2023-02-23T22:56:40;9.30;99.90
8988;DHT22;4529;51.360;12.474;2023-02-23T23:01:43;9.20;99.90
8988;DHT22;4529;51.360;12.474;2023-02-23T23:06:47;9.20;99.90
8988;DHT22;4529;51.360;12.474;2023-02-23T23:11:50;9.20;99.90
8988;DHT22;4529;51.360;12.474;2023-02-23T23:16:54;9.10;99.90
8988;DHT22;4529;51.360;12.474;2023-02-23T23:21:58;9.10;99.90
8988;DHT22;4529;51.360;12.474;2023-02-23T23:27:01;9.10;99.90
8988;DHT22;4529;51.360;12.474;2023-02-23T23:32:05;9.10;99.90
8988;DHT22;4529;51.360;12.474;2023-02-23T23:37:08;9.10;99.90
8988;DHT22;4529;51.360;12.474;2023-02-23T23:42:12;9.10;99.90
8988;DHT22;4529;51.360;12.474;2023-02-23T23:47:15;9.10;99.90
8988;DHT22;4529;51.360;12.474;2023-02-23T23:52:19;9.10;99.90
8988;DHT22;4529;51.360;12.474;2023-02-23T23:57:23;9.10;99.90
